Time;durP1;ratioP1;P1;durP2;ratioP2;P2;SDS_P1;SDS_P2;PMS_P1;PMS_P2;Temp;Humidity;BMP_temperature;BMP_pressure;BME280_temperature;BME280_humidity;BME280_pressure;Samples;Min_cycle;Max_cycle;Signal;HPM_P1;HPM_P2
2023/03/05 00:02:12;;;;;;;4.37;1.47;;;;;;;3.75;77.87;102177.97;5033363;28;20112;-78
2023/03/05 00:04:37;;;;;;;3.90;1.40;;;;;;;3.73;78.17;102176.16;5033583;28;20037;-78
2023/03/05 00:07:04;;;;;;;5.13;1.20;;;;;;;3.71;77.85;102165.84;5042312;28;20496;-78
2023/03/05 00:09:30;;;;;;;3.58;1.15;;;;;;;3.69;77.99;102170.09;5035084;28;20044;-78
2023/03/05 00:11:55;;;;;;;6.15;1.33;;;;;;;3.71;77.64;102173.56;5054063;28;20025;-79
2023/03/05 00:14:21;;;;;;;5.70;1.27;;;;;;;3.67;78.44;102176.91;5053914;28;20024;-78
2023/03/05 00:16:47;;;;;;;9.43;1.50;;;;;;;3.63;78.17;102167.34;5052639;28;20029;-78
2023/03/05 00:19:12;;;;;;;5.50;1.40;;;;;;;3.61;78.13;102167.31;5051132;28;20279;-78
2023/03/05 00:21:39;;;;;;;8.00;1.40;;;;;;;3.59;78.91;102161.28;5053142;28;20045;-78
2023/03/05 00:24:09;;;;;;;3.57;1.20;;;;;;;3.57;79.04;102157.78;5049319;28;20035;-79
2023/03/05 00:26:36;;;;;;;5.63;1.20;;;;;;;3.57;79.07;102157.78;5051912;28;20033;-79
2023/03/05 00:29:02;;;;;;;4.43;1.17;;;;;;;3.58;78.92;102159.53;5051308;28;20127;-78
2023/03/05 00:31:30;;;;;;;3.13;1.10;;;;;;;3.57;79.50;102157.78;5050037;28;20025;-78
2023/03/05 00:33:58;;;;;;;4.73;1.20;;;;;;;3.56;79.50;102153.47;5052484;28;20025;-78
2023/03/05 00:36:24;;;;;;;4.03;1.00;;;;;;;3.57;79.65;102156.94;5051258;28;20067;-78
2023/03/05 00:38:50;;;;;;;5.82;1.25;;;;;;;3.56;79.59;102156.03;5051515;28;20032;-78
2023/03/05 00:41:16;;;;;;;3.70;1.10;;;;;;;3.54;79.28;102149.13;5051690;28;20025;-78
2023/03/05 00:43:41;;;;;;;7.03;1.30;;;;;;;3.55;79.21;102150.88;5049933;28;20028;-78
2023/03/05 00:46:07;;;;;;;6.97;1.30;;;;;;;3.55;78.94;102145.72;5051842;28;20063;-78
2023/03/05 00:48:32;;;;;;;3.57;1.33;;;;;;;3.55;79.33;102148.28;5049829;28;20462;-78
2023/03/05 00:50:58;;;;;;;2.92;1.25;;;;;;;3.56;78.94;102138.03;5052203;28;21813;-78
2023/03/05 00:53:23;;;;;;;4.47;1.30;;;;;;;3.56;79.23;102132.88;5032224;28;20021;-78
2023/03/05 00:55:48;;;;;;;5.30;1.27;;;;;;;3.59;78.82;102137.22;5050187;28;20099;-78
2023/03/05 00:58:14;;;;;;;6.33;1.20;;;;;;;3.61;78.71;102140.69;5052105;28;20060;-78
2023/03/05 01:00:40;;;;;;;5.90;1.10;;;;;;;3.59;78.89;102127.81;5049611;28;20028;-78
2023/03/05 01:03:05;;;;;;;5.77;1.27;;;;;;;3.60;78.63;102136.38;5048485;28;20033;-78
2023/03/05 01:05:30;;;;;;;5.07;1.33;;;;;;;3.60;78.57;102133.81;5050776;28;20047;-78
2023/03/05 01:07:56;;;;;;;5.30;1.27;;;;;;;3.59;79.03;102132.06;5048698;28;20047;-78
2023/03/05 01:10:25;;;;;;;7.70;1.42;;;;;;;3.60;78.68;102124.41;5050654;28;20630;-78
2023/03/05 01:12:51;;;;;;;6.10;1.40;;;;;;;3.58;78.54;102115.78;5031170;28;20024;-79
2023/03/05 01:15:16;;;;;;;6.50;1.33;;;;;;;3.57;78.39;102115.75;5051160;28;20479;-78
2023/03/05 01:17:42;;;;;;;5.07;2.00;;;;;;;3.58;78.40;102114.94;5048896;28;20032;-78
2023/03/05 01:20:08;;;;;;;3.88;1.25;;;;;;;3.58;78.28;102107.22;5032290;28;20040;-79
2023/03/05 01:22:33;;;;;;;4.97;1.60;;;;;;;3.56;78.09;102099.44;5050960;28;20444;-78
2023/03/05 01:24:59;;;;;;;4.20;1.30;;;;;;;3.58;78.27;102109.78;5049035;28;20071;-78
2023/03/05 01:27:24;;;;;;;6.40;1.50;;;;;;;3.55;78.35;102104.56;5049204;28;20392;-78
2023/03/05 01:29:50;;;;;;;6.03;1.40;;;;;;;3.55;78.30;102095.13;5050253;28;20021;-78
2023/03/05 01:32:15;;;;;;;3.78;1.30;;;;;;;3.56;78.29;102101.16;5048897;28;20036;-78
2023/03/05 01:34:40;;;;;;;5.20;1.33;;;;;;;3.53;78.04;102090.78;5049530;28;20028;-78
2023/03/05 01:37:07;;;;;;;4.90;1.27;;;;;;;3.52;78.47;102091.59;5051023;28;20116;-78
2023/03/05 01:39:32;;;;;;;3.70;1.30;;;;;;;3.51;78.45;102088.16;5051795;28;20549;-78
2023/03/05 01:41:57;;;;;;;6.00;1.27;;;;;;;3.52;78.07;102086.47;5051681;28;20021;-79
2023/03/05 01:44:26;;;;;;;5.40;1.47;;;;;;;3.51;78.26;102077.84;5050492;28;20028;-78
2023/03/05 01:46:52;;;;;;;7.43;1.60;;;;;;;3.48;78.62;102073.53;5050564;28;20032;-78
2023/03/05 01:49:26;;;;;;;6.67;1.30;;;;;;;3.49;78.59;102072.69;5049433;28;20017;-78
2023/03/05 01:52:04;;;;;;;6.20;1.60;;;;;;;3.46;79.02;102067.47;5052370;28;20024;-78
2023/03/05 01:54:36;;;;;;;4.80;1.27;;;;;;;3.43;78.95;102069.97;5051933;28;20036;-78
2023/03/05 01:57:14;;;;;;;7.23;1.47;;;;;;;3.41;79.15;102069.09;5052406;28;20507;-78
2023/03/05 01:59:41;;;;;;;7.27;1.50;;;;;;;3.41;79.04;102060.47;5033216;28;20052;-78
2023/03/05 02:02:08;;;;;;;5.60;1.40;;;;;;;3.41;78.80;102053.66;5051020;28;20064;-78
2023/03/05 02:04:40;;;;;;;5.87;1.30;;;;;;;3.40;79.35;102057.06;5031566;28;20416;-78
2023/03/05 02:07:06;;;;;;;9.83;2.37;;;;;;;3.41;79.04;102045.03;5050327;28;20574;-78
2023/03/05 02:09:31;;;;;;;5.53;1.40;;;;;;;3.42;79.69;102039.91;5050668;28;20175;-78
2023/03/05 02:11:57;;;;;;;5.00;1.40;;;;;;;3.44;79.79;102038.25;5048068;28;20017;-78
2023/03/05 02:14:24;;;;;;;5.47;1.40;;;;;;;3.48;79.53;102036.66;5050206;28;20043;-78
2023/03/05 02:16:50;;;;;;;6.17;1.33;;;;;;;3.51;79.71;102025.53;5049154;28;20029;-78
2023/03/05 02:19:15;;;;;;;5.07;1.67;;;;;;;3.54;79.66;102020.47;5049320;28;20025;-78
2023/03/05 02:21:44;;;;;;;5.33;1.70;;;;;;;3.55;79.48;102023.06;5048816;28;20021;-78
2023/03/05 02:24:30;;;;;;;5.77;1.70;;;;;;;3.58;79.78;102022.28;5051042;28;20029;-78
2023/03/05 02:26:56;;;;;;;6.57;1.73;;;;;;;3.60;79.55;102016.34;5047627;28;20025;-78
2023/03/05 02:29:21;;;;;;;7.43;1.90;;;;;;;3.62;79.37;102018.94;5029755;28;20064;-78
2023/03/05 02:31:47;;;;;;;4.88;1.50;;;;;;;3.62;79.32;102018.94;5050310;28;20029;-78
2023/03/05 02:34:13;;;;;;;6.93;1.53;;;;;;;3.61;79.64;102022.34;5051214;28;20089;-78
2023/03/05 02:36:38;;;;;;;3.73;1.50;;;;;;;3.59;79.63;102011.13;5049217;28;20074;-78
2023/03/05 02:39:04;;;;;;;5.93;1.70;;;;;;;3.57;79.43;102011.13;5049355;28;20100;-78
2023/03/05 02:41:29;;;;;;;5.53;1.67;;;;;;;3.56;79.69;102006.78;5049388;28;20036;-78
2023/03/05 02:43:54;;;;;;;8.83;1.70;;;;;;;3.54;80.01;102005.03;5047641;28;20021;-78
2023/03/05 02:46:20;;;;;;;4.93;1.83;;;;;;;3.56;80.18;101993.06;5048389;28;20423;-78
2023/03/05 02:48:45;;;;;;;7.73;2.13;;;;;;;3.57;80.12;101990.53;5047286;28;20518;-78
2023/03/05 02:51:10;;;;;;;5.83;1.57;;;;;;;3.60;79.81;101987.13;5045421;28;20029;-79
2023/03/05 02:53:36;;;;;;;4.97;1.80;;;;;;;3.58;79.26;101979.41;5047147;28;20087;-79
2023/03/05 02:56:02;;;;;;;4.40;1.50;;;;;;;3.60;79.81;101974.28;5049282;28;20013;-79
2023/03/05 02:58:27;;;;;;;10.00;1.90;;;;;;;3.56;79.29;101962.19;5048463;28;20049;-79
2023/03/05 03:00:52;;;;;;;6.13;1.70;;;;;;;3.54;79.51;101959.56;5048972;28;20056;-79
2023/03/05 03:03:18;;;;;;;7.03;1.90;;;;;;;3.53;79.62;101962.13;5046682;28;20130;-78
2023/03/05 03:05:43;;;;;;;5.57;1.80;;;;;;;3.53;79.74;101962.13;5048349;28;20047;-78
2023/03/05 03:08:09;;;;;;;4.47;1.37;;;;;;;3.51;79.51;101958.66;5050868;28;20041;-78
2023/03/05 03:10:34;;;;;;;5.17;1.60;;;;;;;3.52;79.50;101950.09;5033946;28;20033;-79
2023/03/05 03:13:00;;;;;;;6.10;1.83;;;;;;;3.48;79.69;101950.03;5052744;28;20032;-78
2023/03/05 03:15:25;;;;;;;4.30;1.40;;;;;;;3.48;79.79;101947.44;5052820;28;20053;-78
2023/03/05 03:17:50;;;;;;;4.70;1.47;;;;;;;3.47;79.74;101938.00;5054384;28;20029;-78
2023/03/05 03:20:17;;;;;;;6.10;1.50;;;;;;;3.47;79.83;101940.56;5050104;28;20029;-79
2023/03/05 03:22:44;;;;;;;4.77;1.60;;;;;;;3.45;80.08;101939.66;5052362;28;20068;-78
2023/03/05 03:25:16;;;;;;;5.63;1.40;;;;;;;3.46;79.87;101933.69;5053476;28;20052;-78
2023/03/05 03:27:41;;;;;;;5.68;1.80;;;;;;;3.45;79.92;101933.66;5049239;28;20052;-78
2023/03/05 03:30:07;;;;;;;7.27;1.50;;;;;;;3.43;79.95;101931.03;5050248;28;20060;-78
2023/03/05 03:32:33;;;;;;;3.33;1.40;;;;;;;3.43;79.96;101936.19;5052310;28;20025;-78
2023/03/05 03:34:59;;;;;;;5.60;1.63;;;;;;;3.43;79.92;101931.03;5052598;28;20036;-78
2023/03/05 03:37:25;;;;;;;3.00;1.33;;;;;;;3.41;80.19;101927.59;5052556;28;20052;-78
2023/03/05 03:39:50;;;;;;;3.50;1.30;;;;;;;3.40;79.67;101925.84;5051245;28;20648;-78
2023/03/05 03:42:17;;;;;;;2.80;1.10;;;;;;;3.38;80.36;101918.91;5054265;28;20020;-78
2023/03/05 03:44:42;;;;;;;3.97;1.20;;;;;;;3.37;80.09;101925.78;5053192;28;20037;-78
2023/03/05 03:47:07;;;;;;;3.30;1.10;;;;;;;3.34;80.14;101918.00;5049561;28;20538;-78
2023/03/05 03:49:32;;;;;;;3.87;1.20;;;;;;;3.32;80.33;101924.81;5035401;28;20044;-78
2023/03/05 03:51:58;;;;;;;5.30;1.67;;;;;;;3.29;80.24;101920.47;5053532;28;20434;-78
2023/03/05 03:54:24;;;;;;;3.47;1.20;;;;;;;3.26;80.13;101928.13;5052361;28;20036;-78
2023/03/05 03:56:49;;;;;;;4.17;1.07;;;;;;;3.25;80.39;101917.78;5052281;28;20036;-78
2023/03/05 03:59:14;;;;;;;6.67;1.50;;;;;;;3.22;80.43;101917.75;5054656;28;20132;-78
2023/03/05 04:01:40;;;;;;;2.97;1.17;;;;;;;3.22;80.74;101922.88;5052204;28;20029;-78
2023/03/05 04:04:05;;;;;;;4.20;1.20;;;;;;;3.21;80.75;101921.13;5052280;28;20048;-78
2023/03/05 04:06:32;;;;;;;3.37;1.20;;;;;;;3.21;80.63;101918.56;5052797;28;20057;-78
2023/03/05 04:08:57;;;;;;;4.20;1.27;;;;;;;3.22;81.10;101910.03;5052154;28;20028;-78
2023/03/05 04:11:23;;;;;;;6.30;1.50;;;;;;;3.23;80.79;101906.63;5051931;28;20541;-78
2023/03/05 04:13:49;;;;;;;3.87;1.40;;;;;;;3.23;80.50;101911.75;5054158;28;20036;-78
2023/03/05 04:16:15;;;;;;;4.23;1.30;;;;;;;3.21;80.52;101903.13;5050449;28;20464;-78
2023/03/05 04:18:41;;;;;;;5.50;1.47;;;;;;;3.17;80.89;101897.03;5052644;28;20029;-78
2023/03/05 04:21:06;;;;;;;5.17;1.50;;;;;;;3.17;80.97;101890.22;5051354;28;20032;-78
2023/03/05 04:23:32;;;;;;;5.60;1.50;;;;;;;3.20;80.88;101884.25;5052025;28;20058;-78
2023/03/05 04:25:57;;;;;;;5.43;1.50;;;;;;;3.22;80.99;101885.16;5051160;28;20035;-78
2023/03/05 04:28:22;;;;;;;4.50;1.57;;;;;;;3.23;81.16;101884.31;5051909;28;20090;-78
2023/03/05 04:30:48;;;;;;;4.97;1.47;;;;;;;3.25;80.89;101884.34;5050935;28;20055;-78
2023/03/05 04:33:13;;;;;;;4.77;1.80;;;;;;;3.23;80.81;101880.91;5052348;28;20052;-78
2023/03/05 04:35:39;;;;;;;4.83;1.60;;;;;;;3.19;81.05;101875.69;5051003;28;20036;-78
2023/03/05 04:38:04;;;;;;;6.47;1.70;;;;;;;3.19;81.19;101880.81;5051992;28;20033;-78
2023/03/05 04:40:30;;;;;;;5.60;1.57;;;;;;;3.19;81.11;101873.13;5051438;28;20072;-78
2023/03/05 04:42:55;;;;;;;4.90;1.43;;;;;;;3.18;80.98;101871.38;5048866;28;20094;-78
2023/03/05 04:45:20;;;;;;;7.17;1.50;;;;;;;3.18;81.32;101873.94;5050294;28;20029;-78
2023/03/05 04:47:46;;;;;;;3.07;1.20;;;;;;;3.18;81.45;101867.91;5050651;28;20028;-78
2023/03/05 04:50:12;;;;;;;3.00;1.50;;;;;;;3.18;81.44;101875.63;5049017;28;20025;-78
2023/03/05 04:52:42;;;;;;;3.10;1.27;;;;;;;3.16;81.52;101870.47;5049524;28;20044;-78
2023/03/05 04:55:08;;;;;;;4.67;1.23;;;;;;;3.15;81.32;101873.88;5050134;28;20384;-78
2023/03/05 04:57:34;;;;;;;4.47;1.53;;;;;;;3.16;80.96;101867.03;5050488;28;20032;-78
2023/03/05 05:00:00;;;;;;;4.83;2.10;;;;;;;3.13;81.27;101865.25;5052236;28;20086;-78
2023/03/05 05:02:25;;;;;;;5.27;1.43;;;;;;;3.11;81.46;101866.91;5050256;28;20009;-78
2023/03/05 05:04:53;;;;;;;3.20;1.50;;;;;;;3.13;81.32;101860.13;5049654;28;20033;-78
2023/03/05 05:07:19;;;;;;;6.33;1.70;;;;;;;3.13;81.63;101857.53;5048884;28;20045;-78
2023/03/05 05:09:45;;;;;;;5.67;1.60;;;;;;;3.15;81.58;101855.88;5049852;28;20090;-78
2023/03/05 05:12:10;;;;;;;4.30;1.40;;;;;;;3.18;81.24;101858.53;5049053;28;20549;-78
2023/03/05 05:14:35;;;;;;;4.60;1.40;;;;;;;3.20;81.53;101848.25;5053401;28;20036;-78
2023/03/05 05:17:03;;;;;;;4.60;1.53;;;;;;;3.21;81.52;101847.41;5049528;28;20546;-78
2023/03/05 05:19:30;;;;;;;4.60;1.50;;;;;;;3.22;81.70;101849.16;5050218;28;20401;-78
2023/03/05 05:21:55;;;;;;;7.67;1.63;;;;;;;3.23;82.30;101843.19;5050440;28;20398;-78
2023/03/05 05:24:20;;;;;;;6.03;1.60;;;;;;;3.26;82.05;101842.38;5052475;28;20028;-78
2023/03/05 05:26:45;;;;;;;4.10;1.70;;;;;;;3.26;81.99;101838.09;5048652;28;20398;-78
2023/03/05 05:29:11;;;;;;;5.10;1.40;;;;;;;3.28;81.89;101838.13;5050984;28;20044;-78
2023/03/05 05:31:36;;;;;;;8.10;1.90;;;;;;;3.25;81.44;101836.38;5049388;28;20036;-78
2023/03/05 05:34:01;;;;;;;5.77;1.70;;;;;;;3.26;81.50;101834.66;5050198;28;20043;-78
2023/03/05 05:36:27;;;;;;;5.10;1.53;;;;;;;3.26;81.51;101838.09;5051102;28;20470;-78
2023/03/05 05:38:52;;;;;;;4.40;1.70;;;;;;;3.25;81.31;101838.94;5049564;28;20025;-78
2023/03/05 05:41:18;;;;;;;4.53;2.10;;;;;;;3.25;81.53;101832.91;5051205;28;20048;-78
2023/03/05 05:43:44;;;;;;;5.13;2.00;;;;;;;3.26;81.25;101834.66;5030207;28;20511;-78
2023/03/05 05:46:15;;;;;;;7.20;2.10;;;;;;;3.25;81.57;101832.91;5049885;28;20049;-78
2023/03/05 05:48:41;;;;;;;4.57;2.08;;;;;;;3.26;81.42;101829.50;5050459;28;20025;-78
2023/03/05 05:51:09;;;;;;;5.87;2.17;;;;;;;3.24;81.17;101821.78;5051112;28;20036;-78
2023/03/05 05:53:34;;;;;;;4.17;2.20;;;;;;;3.24;80.82;101815.78;5048325;28;20032;-79
2023/03/05 05:56:03;;;;;;;6.47;2.30;;;;;;;3.24;81.47;101824.34;5051414;28;20036;-78
2023/03/05 05:58:28;;;;;;;6.07;2.60;;;;;;;3.24;81.36;101820.91;5051606;28;20033;-78
2023/03/05 06:00:53;;;;;;;7.53;3.00;;;;;;;3.25;81.59;101820.06;5050460;28;20161;-78
2023/03/05 06:03:19;;;;;;;5.83;2.67;;;;;;;3.24;81.44;101824.34;5050114;28;20032;-78
2023/03/05 06:05:46;;;;;;;7.30;2.97;;;;;;;3.24;81.68;101820.91;5051842;28;20025;-78
2023/03/05 06:08:11;;;;;;;6.67;2.87;;;;;;;3.21;82.05;101824.28;5049941;28;20037;-78
2023/03/05 06:10:37;;;;;;;5.20;2.97;;;;;;;3.21;82.28;101823.41;5045958;28;20029;-78
2023/03/05 06:13:02;;;;;;;7.47;3.03;;;;;;;3.18;82.17;101812.22;5046286;28;20365;-78
2023/03/05 06:15:27;;;;;;;6.80;3.47;;;;;;;3.15;82.20;101826.75;5062632;28;20055;-78
2023/03/05 06:17:53;;;;;;;8.90;3.50;;;;;;;3.11;82.30;101814.66;5051656;28;20404;-78
2023/03/05 06:20:19;;;;;;;7.20;3.43;;;;;;;3.10;82.39;101823.19;5050132;28;20054;-78
2023/03/05 06:22:44;;;;;;;8.27;3.07;;;;;;;3.06;83.46;101817.13;5060075;28;20028;-78
2023/03/05 06:25:10;;;;;;;6.67;3.37;;;;;;;3.07;83.68;101818.88;5048307;28;20104;-78
2023/03/05 06:27:36;;;;;;;5.67;3.10;;;;;;;3.08;83.56;101817.16;5059653;28;20039;-78
2023/03/05 06:30:01;;;;;;;6.97;3.53;;;;;;;3.04;83.62;101819.66;5046437;28;20138;-78
2023/03/05 06:32:26;;;;;;;8.17;4.10;;;;;;;3.02;83.57;101811.03;5049325;28;20499;-78
2023/03/05 06:34:52;;;;;;;9.17;4.00;;;;;;;3.02;84.40;101810.19;5048478;28;20035;-78
2023/03/05 06:37:17;;;;;;;7.13;3.77;;;;;;;3.03;84.37;101809.34;5049066;28;20028;-78
2023/03/05 06:39:43;;;;;;;7.13;3.97;;;;;;;3.03;84.49;101804.22;5047371;28;20380;-79
2023/03/05 06:42:08;;;;;;;7.60;3.47;;;;;;;3.05;84.73;101810.25;5041893;28;20029;-78
2023/03/05 06:44:36;;;;;;;7.60;3.67;;;;;;;3.08;85.26;101809.44;5040971;28;20055;-79
2023/03/05 06:47:04;;;;;;;7.80;4.20;;;;;;;3.11;84.96;101806.94;5044004;28;20042;-79
2023/03/05 06:49:29;;;;;;;6.47;3.90;;;;;;;3.11;85.31;101810.34;5042528;28;20033;-79
2023/03/05 06:51:54;;;;;;;6.07;3.80;;;;;;;3.12;84.95;101809.53;5044283;28;20048;-78
2023/03/05 06:54:20;;;;;;;9.30;3.87;;;;;;;3.11;84.88;101809.50;5041029;28;20470;-79
2023/03/05 06:56:46;;;;;;;7.00;4.23;;;;;;;3.10;85.17;101810.34;5041654;28;20483;-80
2023/03/05 06:59:12;;;;;;;10.73;4.30;;;;;;;3.12;85.52;101798.38;5042028;28;20055;-79
2023/03/05 07:01:38;;;;;;;7.60;3.83;;;;;;;3.14;85.55;101802.72;5039419;28;20479;-78
2023/03/05 07:04:04;;;;;;;8.07;3.87;;;;;;;3.16;85.54;101801.03;5024362;28;20115;-78
2023/03/05 07:06:35;;;;;;;7.93;4.10;;;;;;;3.21;85.38;101802.84;5042520;28;20056;-79
2023/03/05 07:09:03;;;;;;;7.27;4.00;;;;;;;3.22;85.96;101804.59;5041789;28;20040;-79
2023/03/05 07:11:30;;;;;;;7.70;3.87;;;;;;;3.26;85.59;101801.22;5043493;28;20040;-79
2023/03/05 07:13:55;;;;;;;7.33;4.00;;;;;;;3.26;85.53;101804.69;5041469;28;20154;-79
2023/03/05 07:16:26;;;;;;;7.60;4.10;;;;;;;3.28;85.65;101799.53;5043028;28;20484;-78
2023/03/05 07:18:52;;;;;;;8.07;3.90;;;;;;;3.31;85.84;101802.19;5042170;28;20032;-79
2023/03/05 07:21:21;;;;;;;5.73;3.97;;;;;;;3.35;85.97;101798.84;5042900;28;20112;-79
2023/03/05 07:23:46;;;;;;;7.67;3.83;;;;;;;3.41;85.96;101800.66;5043764;28;20037;-79
2023/03/05 07:26:11;;;;;;;8.57;4.13;;;;;;;3.44;85.62;101793.88;5043764;28;20476;-79
2023/03/05 07:28:37;;;;;;;6.87;4.03;;;;;;;3.48;85.33;101795.66;5042820;28;20029;-78
2023/03/05 07:31:10;;;;;;;10.33;4.60;;;;;;;3.49;84.96;101791.41;5041639;28;20567;-78
2023/03/05 07:33:36;;;;;;;7.77;4.17;;;;;;;3.47;85.40;101791.34;5039649;28;20116;-78
2023/03/05 07:36:11;;;;;;;6.13;4.00;;;;;;;3.47;85.32;101788.78;5026510;28;20104;-78
2023/03/05 07:38:36;;;;;;;7.50;4.37;;;;;;;3.48;85.36;101790.53;5041107;28;20032;-78
2023/03/05 07:41:04;;;;;;;7.23;4.13;;;;;;;3.46;86.05;101787.06;5044589;28;20021;-79
2023/03/05 07:43:29;;;;;;;8.40;3.85;;;;;;;3.49;86.44;101789.69;5043432;28;20037;-78
2023/03/05 07:45:54;;;;;;;7.50;4.27;;;;;;;3.54;85.90;101791.47;5043072;28;20025;-79
2023/03/05 07:48:20;;;;;;;7.10;4.07;;;;;;;3.56;85.68;101795.81;5046484;28;20116;-78
2023/03/05 07:50:46;;;;;;;7.17;4.33;;;;;;;3.55;86.02;101788.94;5046853;28;20032;-78
2023/03/05 07:53:11;;;;;;;8.13;3.97;;;;;;;3.60;85.96;101786.44;5046178;28;20050;-78
2023/03/05 07:55:44;;;;;;;9.97;4.43;;;;;;;3.65;86.01;101782.25;5046953;28;20684;-78
2023/03/05 07:58:10;;;;;;;8.70;4.10;;;;;;;3.69;86.05;101789.19;5046093;28;20067;-78
2023/03/05 08:00:35;;;;;;;8.48;4.45;;;;;;;3.73;85.88;101787.53;5046298;28;20083;-78
2023/03/05 08:03:01;;;;;;;10.80;4.68;;;;;;;3.69;85.19;101786.63;5045343;28;20029;-78
2023/03/05 08:05:26;;;;;;;10.17;4.17;;;;;;;3.69;85.49;101784.03;5045572;28;20135;-78
2023/03/05 08:07:51;;;;;;;6.72;4.20;;;;;;;3.74;85.61;101782.44;5029302;28;20056;-79
2023/03/05 08:10:17;;;;;;;8.27;4.10;;;;;;;3.76;85.35;101775.56;5047533;28;20032;-79
2023/03/05 08:12:42;;;;;;;7.40;3.90;;;;;;;3.77;85.38;101777.31;5047242;28;20708;-79
2023/03/05 08:15:07;;;;;;;8.17;4.13;;;;;;;3.80;85.74;101774.78;5047698;28;20040;-78
2023/03/05 08:17:33;;;;;;;9.90;4.50;;;;;;;3.83;85.49;101770.53;5047288;28;20475;-79
2023/03/05 08:19:59;;;;;;;9.27;4.05;;;;;;;3.85;85.37;101764.56;5024900;28;20028;-78
2023/03/05 08:22:25;;;;;;;5.77;3.57;;;;;;;3.86;85.25;101768.88;5045347;28;20083;-79
2023/03/05 08:24:51;;;;;;;6.13;3.83;;;;;;;3.85;85.01;101771.44;5044335;28;20377;-78
2023/03/05 08:27:16;;;;;;;7.67;3.80;;;;;;;3.85;84.95;101768.88;5043783;28;20035;-78
2023/03/05 08:29:41;;;;;;;5.70;3.53;;;;;;;3.88;85.39;101759.47;5044971;28;20024;-79
2023/03/05 08:32:06;;;;;;;8.50;4.07;;;;;;;3.95;85.03;101761.31;5040584;28;20037;-79
2023/03/05 08:34:32;;;;;;;6.17;3.47;;;;;;;4.04;85.12;101755.47;5043051;28;20515;-80
2023/03/05 08:36:57;;;;;;;6.73;3.43;;;;;;;4.16;84.35;101759.06;5043344;28;20028;-79
2023/03/05 08:39:22;;;;;;;7.30;3.97;;;;;;;4.25;84.84;101746.34;5026197;28;20361;-79
2023/03/05 08:41:48;;;;;;;7.03;3.83;;;;;;;4.33;84.59;101747.31;5043399;28;20376;-79
2023/03/05 08:44:13;;;;;;;5.55;3.35;;;;;;;4.41;83.97;101744.84;5044069;28;20063;-79
2023/03/05 08:46:39;;;;;;;5.90;3.30;;;;;;;4.44;83.54;101751.78;5023573;28;20404;-79
2023/03/05 08:49:06;;;;;;;6.88;3.67;;;;;;;4.45;83.76;101746.63;5043222;28;20037;-79
2023/03/05 08:51:32;;;;;;;7.18;3.40;;;;;;;4.49;83.77;101737.22;5041797;28;20433;-79
2023/03/05 08:53:58;;;;;;;7.15;3.30;;;;;;;4.52;83.46;101742.44;5027804;28;20483;-79
2023/03/05 08:56:26;;;;;;;4.73;3.10;;;;;;;4.57;83.59;101733.06;5041928;28;20033;-78
2023/03/05 08:58:51;;;;;;;4.33;2.97;;;;;;;4.62;82.60;101733.97;5021416;28;20024;-78
2023/03/05 09:01:17;;;;;;;6.07;2.90;;;;;;;4.63;82.71;101733.13;5041017;28;20071;-78
2023/03/05 09:03:43;;;;;;;4.88;2.70;;;;;;;4.68;82.41;101731.47;5043363;28;20085;-79
2023/03/05 09:06:11;;;;;;;6.10;2.65;;;;;;;4.69;82.01;101730.63;5041609;28;20036;-79
2023/03/05 09:08:36;;;;;;;4.68;2.50;;;;;;;4.72;81.94;101727.22;5042460;28;20033;-80
2023/03/05 09:11:03;;;;;;;4.63;2.60;;;;;;;4.79;81.99;101725.56;5044091;28;20033;-78
2023/03/05 09:13:29;;;;;;;5.13;2.40;;;;;;;4.84;81.23;101716.19;5042933;28;20028;-78
2023/03/05 09:16:09;;;;;;;5.18;2.50;;;;;;;4.86;81.33;101725.72;5045749;28;20395;-79
2023/03/05 09:18:39;;;;;;;4.20;2.50;;;;;;;4.90;81.33;101724.03;5025222;28;20840;-79
2023/03/05 09:21:06;;;;;;;5.07;2.58;;;;;;;4.92;81.10;101717.16;5039056;28;20484;-84
2023/03/05 09:23:31;;;;;;;4.35;2.03;;;;;;;4.93;80.92;101712.88;5041090;28;20032;-79
2023/03/05 09:25:56;;;;;;;3.65;2.20;;;;;;;4.94;79.96;101714.59;5041873;28;20033;-79
2023/03/05 09:28:22;;;;;;;4.10;2.03;;;;;;;4.95;80.44;101712.03;5045465;28;20028;-79
2023/03/05 09:30:47;;;;;;;5.22;2.10;;;;;;;4.95;80.10;101712.03;5042780;28;20111;-79
2023/03/05 09:33:12;;;;;;;3.90;2.00;;;;;;;4.99;80.58;101708.63;5040573;28;20061;-79
2023/03/05 09:35:37;;;;;;;4.70;2.20;;;;;;;5.07;81.25;101706.16;5042223;28;20492;-79
2023/03/05 09:38:03;;;;;;;4.03;2.20;;;;;;;5.10;79.77;101713.06;5044228;28;20033;-78
2023/03/05 09:41:02;;;;;;;4.03;1.90;;;;;;;5.03;79.46;101703.53;5044790;28;20102;-78
2023/03/05 09:43:46;;;;;;;3.00;1.70;;;;;;;5.02;79.63;101697.50;5033709;28;20479;-79
2023/03/05 09:46:27;;;;;;;2.72;1.60;;;;;;;5.03;79.17;101693.22;5045049;28;20033;-80
2023/03/05 09:49:14;;;;;;;4.10;1.53;;;;;;;4.90;77.86;101693.06;5044903;28;20048;-80
2023/03/05 09:51:41;;;;;;;3.17;1.70;;;;;;;4.78;79.28;101698.94;5040257;28;20406;-79
2023/03/05 09:54:16;;;;;;;3.33;1.50;;;;;;;4.69;79.72;101694.53;5027960;28;20419;-80
2023/03/05 09:56:49;;;;;;;3.03;1.40;;;;;;;4.61;79.72;101698.72;5045061;28;20697;-79
2023/03/05 09:59:45;;;;;;;3.83;1.20;;;;;;;4.47;80.54;101689.94;5041591;28;20043;-79
2023/03/05 10:02:26;;;;;;;2.20;1.10;;;;;;;4.44;81.15;101697.66;5040624;28;20025;-79
2023/03/05 10:05:10;;;;;;;;;;;;;;;4.44;80.26;101692.50;5043567;28;20120;-78
2023/03/05 10:07:40;;;;;;;2.50;1.20;;;;;;;4.40;82.22;101687.31;5039529;28;19960;-78
2023/03/05 10:10:13;;;;;;;3.00;1.30;;;;;;;4.40;82.57;101692.47;5040771;28;20076;-78
2023/03/05 10:12:42;;;;;;;3.97;1.90;;;;;;;4.43;82.17;101685.63;5042626;28;20037;-78
2023/03/05 10:15:39;;;;;;;2.55;1.50;;;;;;;4.50;82.82;101679.69;5040203;28;20102;-78
2023/03/05 10:18:28;;;;;;;3.00;1.15;;;;;;;4.63;83.46;101683.28;5041541;28;20071;-78
2023/03/05 10:21:01;;;;;;;2.05;1.50;;;;;;;4.76;84.36;101671.44;5043725;28;21013;-79
2023/03/05 10:23:29;;;;;;;3.20;1.60;;;;;;;4.91;83.85;101678.47;5038746;28;20032;-78
2023/03/05 10:26:20;;;;;;;2.85;1.63;;;;;;;5.00;83.40;101661.38;5038916;28;20226;-79
2023/03/05 10:29:02;;;;;;;2.17;1.60;;;;;;;5.11;82.42;101661.50;5022578;28;20271;-79
2023/03/05 10:32:13;;;;;;;3.30;1.42;;;;;;;5.22;82.84;101658.13;5041451;28;20033;-79
2023/03/05 10:34:52;;;;;;;1.85;1.10;;;;;;;5.35;82.62;101651.38;5000112;28;20408;-79
2023/03/05 10:37:43;;;;;;;1.80;0.90;;;;;;;5.46;80.53;101648.06;5044212;28;20419;-79
2023/03/05 10:40:22;;;;;;;1.70;0.82;;;;;;;5.50;80.50;101645.50;5041138;28;20222;-79
2023/03/05 10:43:08;;;;;;;1.33;0.80;;;;;;;5.53;79.26;101640.38;5045285;28;20099;-78
2023/03/05 10:45:55;;;;;;;2.00;0.80;;;;;;;5.49;79.54;101643.78;5026284;28;20029;-78
2023/03/05 10:48:51;;;;;;;1.23;0.70;;;;;;;5.40;77.71;101639.41;5043856;28;20031;-78
2023/03/05 10:51:38;;;;;;;2.08;0.75;;;;;;;5.26;78.49;101640.16;5043743;28;20033;-79
2023/03/05 10:54:32;;;;;;;2.53;0.88;;;;;;;5.15;79.13;101642.63;5039929;28;20128;-79
2023/03/05 10:57:12;;;;;;;0.88;0.80;;;;;;;5.02;79.07;101640.78;5036371;28;20388;-79
2023/03/05 10:59:46;;;;;;;2.17;1.00;;;;;;;4.86;78.87;101637.16;5038936;28;20384;-79
2023/03/05 11:02:11;;;;;;;2.13;0.90;;;;;;;4.75;80.49;101646.50;5039439;28;20480;-79
2023/03/05 11:04:39;;;;;;;2.75;1.15;;;;;;;4.68;80.99;101641.25;5043867;28;20032;-79
2023/03/05 11:07:25;;;;;;;2.22;1.17;;;;;;;4.65;81.29;101636.06;5041803;28;20057;-79
2023/03/05 11:09:59;;;;;;;2.35;1.17;;;;;;;4.69;82.10;101627.53;5029963;28;20037;-79
2023/03/05 11:12:34;;;;;;;1.67;1.23;;;;;;;4.74;82.38;101626.72;5042575;28;20038;-79
2023/03/05 11:15:22;;;;;;;1.38;1.13;;;;;;;4.81;82.70;101623.34;5042632;28;20055;-79
2023/03/05 11:18:14;;;;;;;3.05;1.30;;;;;;;4.95;82.91;101621.78;5041164;28;20464;-80
2023/03/05 11:20:39;;;;;;;;;;;;;;;5.10;81.62;101617.63;5044699;28;20037;-80
2023/03/05 11:23:19;;;;;;;2.33;1.17;;;;;;;5.25;82.06;101609.16;5043025;28;19916;-79
2023/03/05 11:25:59;;;;;;;1.77;1.30;;;;;;;5.35;81.16;101613.56;5042310;28;20037;-79
2023/03/05 11:28:35;;;;;;;2.20;1.27;;;;;;;5.43;80.46;101605.88;5045614;28;20029;-79
2023/03/05 11:31:18;;;;;;;5.50;1.80;;;;;;;5.54;79.82;101593.91;5045456;28;20072;-79
2023/03/05 11:33:56;;;;;;;3.47;1.42;;;;;;;5.68;79.33;101598.31;5026003;28;20064;-80
2023/03/05 11:36:24;;;;;;;3.13;1.48;;;;;;;5.77;79.64;101581.16;5024562;28;20037;-80
2023/03/05 11:38:55;;;;;;;3.53;1.40;;;;;;;5.86;79.34;101582.09;5043598;28;20037;-79
2023/03/05 11:41:30;;;;;;;2.42;1.50;;;;;;;6.00;80.05;101583.06;5044813;28;20402;-79